Time;durP1;ratioP1;P1;durP2;ratioP2;P2;SDS_P1;SDS_P2;PMS_P1;PMS_P2;Temp;Humidity;BMP_temperature;BMP_pressure;BME280_temperature;BME280_humidity;BME280_pressure;Samples;Min_cycle;Max_cycle;Signal;HPM_P1;HPM_P2
2021/11/29 00:02:25;;;;;;;37.17;14.35;;;;;;;2.94;74.18;99912.94;5015118;28;20037;-85
2021/11/29 00:04:51;;;;;;;38.45;13.95;;;;;;;2.93;74.50;99906.03;5014299;28;20041;-84
2021/11/29 00:07:16;;;;;;;37.75;14.98;;;;;;;2.90;74.45;99912.56;5010370;28;20484;-84
2021/11/29 00:09:42;;;;;;;39.85;14.13;;;;;;;2.90;74.57;99901.19;5015544;28;20495;-85
2021/11/29 00:12:08;;;;;;;40.15;14.50;;;;;;;2.88;74.39;99903.25;5015814;28;20112;-84
2021/11/29 00:14:34;;;;;;;38.05;14.45;;;;;;;2.88;74.58;99897.94;5013546;28;20106;-85
2021/11/29 00:16:59;;;;;;;40.83;15.70;;;;;;;2.85;74.59;99893.06;5013718;28;20338;-85
2021/11/29 00:19:25;;;;;;;28.85;13.80;;;;;;;2.84;74.33;99900.19;5023663;28;20025;-86
2021/11/29 00:21:51;;;;;;;36.17;15.30;;;;;;;2.83;74.32;99900.41;5015021;28;20025;-85
2021/11/29 00:24:16;;;;;;;38.42;15.63;;;;;;;2.81;74.49;99898.00;5029509;28;20025;-85
2021/11/29 00:26:42;;;;;;;36.25;13.93;;;;;;;2.81;74.47;99899.81;5018152;28;20079;-85
2021/11/29 00:29:08;;;;;;;33.80;14.85;;;;;;;2.77;74.62;99902.09;5016044;28;20056;-86
2021/11/29 00:31:33;;;;;;;37.08;14.63;;;;;;;2.77;74.55;99901.28;5012766;28;20395;-85
2021/11/29 00:33:59;;;;;;;43.15;15.07;;;;;;;2.77;74.77;99903.94;5006765;28;20031;-85
2021/11/29 00:36:25;;;;;;;40.20;14.40;;;;;;;2.77;74.55;99904.75;5010888;28;20040;-87
2021/11/29 00:38:50;;;;;;;38.53;15.23;;;;;;;2.79;74.92;99905.34;5013623;28;20018;-85
2021/11/29 00:41:16;;;;;;;39.80;15.35;;;;;;;2.80;74.69;99903.50;5013468;28;20025;-85
2021/11/29 00:43:42;;;;;;;38.72;15.10;;;;;;;2.81;74.81;99907.75;5011480;28;20053;-85
2021/11/29 00:46:08;;;;;;;33.22;14.48;;;;;;;2.80;74.39;99906.16;5012868;28;21838;-84
2021/11/29 00:48:33;;;;;;;38.25;16.13;;;;;;;2.82;74.61;99914.66;5013595;28;20120;-85
2021/11/29 00:51:02;;;;;;;32.35;14.15;;;;;;;2.82;74.74;99914.66;5010950;28;20033;-84
2021/11/29 00:53:27;;;;;;;31.08;13.48;;;;;;;2.82;75.04;99919.97;5015067;28;20118;-84
2021/11/29 00:55:53;;;;;;;39.85;14.15;;;;;;;2.81;74.83;99921.00;5013842;28;20504;-85
2021/11/29 00:58:19;;;;;;;36.75;15.10;;;;;;;2.83;75.04;99922.38;5013071;28;20380;-85
2021/11/29 01:00:44;;;;;;;35.15;14.48;;;;;;;2.85;74.95;99930.09;5005480;28;20048;-85
2021/11/29 01:03:10;;;;;;;33.72;13.60;;;;;;;2.83;74.55;99917.09;5013698;28;20026;-84
2021/11/29 01:05:36;;;;;;;35.40;14.27;;;;;;;2.86;74.85;99921.13;5011436;28;20763;-84
2021/11/29 01:08:03;;;;;;;35.50;15.45;;;;;;;2.87;74.82;99920.94;5006210;28;20053;-84
2021/11/29 01:10:30;;;;;;;34.65;14.75;;;;;;;2.85;74.90;99930.91;5013034;28;20084;-86
2021/11/29 01:12:57;;;;;;;33.63;13.85;;;;;;;2.82;74.76;99931.34;5012835;28;20454;-85
2021/11/29 01:15:26;;;;;;;32.00;14.15;;;;;;;2.79;74.76;99931.78;5007013;28;20116;-85
2021/11/29 01:17:51;;;;;;;30.00;13.60;;;;;;;2.73;74.90;99928.19;5013788;28;20025;-84
2021/11/29 01:20:17;;;;;;;31.00;13.50;;;;;;;2.71;74.83;99929.44;5012637;28;20092;-85
2021/11/29 01:22:45;;;;;;;29.38;12.68;;;;;;;2.66;75.03;99924.75;5009571;28;20038;-84
2021/11/29 01:25:12;;;;;;;28.92;13.38;;;;;;;2.65;75.05;99923.16;5013641;28;20042;-84
2021/11/29 01:27:38;;;;;;;35.90;14.60;;;;;;;2.66;75.21;99927.41;5008959;28;20555;-84
2021/11/29 01:30:05;;;;;;;30.80;13.27;;;;;;;2.65;74.97;99920.50;5011611;28;20039;-86
2021/11/29 01:32:31;;;;;;;32.95;13.75;;;;;;;2.67;74.81;99921.09;5009436;28;20032;-84
2021/11/29 01:34:57;;;;;;;30.75;13.95;;;;;;;2.69;74.92;99915.59;5011086;28;21793;-84
2021/11/29 01:37:22;;;;;;;32.90;13.02;;;;;;;2.70;74.84;99920.69;5010414;28;20033;-85
2021/11/29 01:39:48;;;;;;;25.75;12.05;;;;;;;2.70;74.78;99918.03;5013470;28;20029;-85
2021/11/29 01:42:13;;;;;;;30.70;12.98;;;;;;;2.70;74.67;99928.63;5008856;28;20619;-84
2021/11/29 01:44:39;;;;;;;30.00;12.32;;;;;;;2.71;74.70;99922.31;5011797;28;20029;-85
2021/11/29 01:47:05;;;;;;;30.63;13.25;;;;;;;2.70;74.78;99918.03;5013060;28;20068;-87
2021/11/29 01:49:31;;;;;;;28.92;12.90;;;;;;;2.70;74.75;99922.53;5010350;28;20140;-84
2021/11/29 01:51:57;;;;;;;27.98;11.90;;;;;;;2.68;74.72;99914.78;5010028;28;20483;-85
2021/11/29 01:54:25;;;;;;;31.58;13.43;;;;;;;2.68;74.82;99917.44;5011581;28;20045;-85
2021/11/29 01:56:52;;;;;;;27.15;11.95;;;;;;;2.69;74.70;99916.44;5011938;28;20025;-84
2021/11/29 01:59:17;;;;;;;25.42;11.82;;;;;;;2.69;75.04;99919.06;5014277;28;20309;-85
2021/11/29 02:01:43;;;;;;;26.70;12.35;;;;;;;2.70;74.92;99923.34;5008702;28;20034;-84
2021/11/29 02:04:12;;;;;;;25.00;12.32;;;;;;;2.71;74.74;99924.94;5003147;28;20021;-83
2021/11/29 02:06:39;;;;;;;27.38;12.07;;;;;;;2.71;74.93;99924.94;5011349;28;20060;-84
2021/11/29 02:09:05;;;;;;;25.98;11.98;;;;;;;2.73;74.82;99928.19;5006026;28;20029;-84
2021/11/29 02:11:32;;;;;;;31.58;13.32;;;;;;;2.74;74.54;99934.28;5005129;28;20049;-85
2021/11/29 02:14:00;;;;;;;28.23;12.57;;;;;;;2.75;74.89;99933.25;5011964;28;20037;-85
2021/11/29 02:16:28;;;;;;;32.22;13.23;;;;;;;2.76;74.77;99936.72;5010507;28;20033;-84
2021/11/29 02:18:55;;;;;;;35.83;14.13;;;;;;;2.75;74.72;99941.19;5011558;28;20031;-84
2021/11/29 02:21:23;;;;;;;31.90;13.63;;;;;;;2.75;74.65;99943.84;5011702;28;20095;-84
2021/11/29 02:24:02;;;;;;;36.47;14.10;;;;;;;2.71;74.81;99940.81;5011851;28;20037;-84
2021/11/29 02:26:29;;;;;;;35.72;14.07;;;;;;;2.75;74.86;99945.69;5013296;28;20049;-83
2021/11/29 02:29:08;;;;;;;31.23;13.23;;;;;;;2.70;74.80;99938.41;5009111;28;20040;-85
2021/11/29 02:31:37;;;;;;;35.70;13.85;;;;;;;2.72;74.87;99947.72;5013732;28;20453;-84
2021/11/29 02:34:20;;;;;;;33.33;14.15;;;;;;;2.67;74.70;99947.53;5016146;28;20021;-85
2021/11/29 02:36:47;;;;;;;30.17;12.95;;;;;;;2.71;75.20;99940.81;5014636;28;20040;-84
2021/11/29 02:39:14;;;;;;;31.08;13.50;;;;;;;2.71;75.02;99938.19;5014907;28;20026;-85
2021/11/29 02:41:44;;;;;;;39.45;15.15;;;;;;;2.72;75.13;99947.72;5012595;28;20025;-85
2021/11/29 02:44:10;;;;;;;26.70;12.07;;;;;;;2.72;74.91;99937.16;5015598;28;20041;-84
2021/11/29 02:46:36;;;;;;;31.35;12.82;;;;;;;2.73;75.15;99940.59;5013164;28;20026;-84
2021/11/29 02:49:04;;;;;;;32.85;13.73;;;;;;;2.74;74.99;99936.94;5017624;28;20064;-85
2021/11/29 02:51:34;;;;;;;30.80;12.30;;;;;;;2.74;75.10;99939.56;5012335;28;20021;-85
2021/11/29 02:54:05;;;;;;;30.27;11.77;;;;;;;2.72;74.80;99939.78;5015408;28;20623;-85
2021/11/29 02:56:32;;;;;;;28.98;11.57;;;;;;;2.76;74.84;99942.00;5016100;28;20399;-86
2021/11/29 02:58:57;;;;;;;30.65;12.18;;;;;;;2.77;75.11;99938.31;5013565;28;20033;-85
2021/11/29 03:01:24;;;;;;;31.20;13.32;;;;;;;2.77;75.10;99935.69;5015303;28;20037;-84
2021/11/29 03:03:54;;;;;;;29.00;12.90;;;;;;;2.76;75.08;99928.78;5015087;28;20144;-85
2021/11/29 03:06:21;;;;;;;29.70;11.43;;;;;;;2.79;75.30;99933.63;5014965;28;20021;-85
2021/11/29 03:08:47;;;;;;;27.92;12.13;;;;;;;2.79;75.14;99936.28;5015121;28;20028;-85
2021/11/29 03:11:15;;;;;;;27.88;11.43;;;;;;;2.80;75.34;99933.41;5012230;28;20629;-85
2021/11/29 03:13:40;;;;;;;23.45;11.60;;;;;;;2.80;75.21;99937.88;5015158;28;20075;-84
2021/11/29 03:16:08;;;;;;;33.03;12.25;;;;;;;2.81;74.99;99934.22;5014051;28;20053;-85
2021/11/29 03:18:39;;;;;;;26.20;11.85;;;;;;;2.81;74.97;99928.94;5011687;28;20029;-85
2021/11/29 03:21:06;;;;;;;29.08;12.13;;;;;;;2.82;74.88;99933.19;5029533;28;20069;-85
2021/11/29 03:23:33;;;;;;;24.92;11.70;;;;;;;2.81;75.24;99934.22;5014602;28;20029;-85
2021/11/29 03:25:59;;;;;;;32.40;12.38;;;;;;;2.81;74.88;99934.22;5015605;28;20030;-85
2021/11/29 03:28:28;;;;;;;31.33;13.18;;;;;;;2.81;75.23;99935.03;5013569;28;20064;-85
2021/11/29 03:30:54;;;;;;;31.33;13.55;;;;;;;2.81;75.10;99934.22;5013330;28;20040;-85
2021/11/29 03:33:19;;;;;;;31.60;11.77;;;;;;;2.80;75.23;99928.13;5025273;28;20078;-85
2021/11/29 03:35:45;;;;;;;33.33;14.32;;;;;;;2.79;75.21;99930.97;5013096;28;20463;-85
2021/11/29 03:38:10;;;;;;;33.75;13.38;;;;;;;2.79;75.06;99930.97;5012648;28;20033;-85
2021/11/29 03:40:38;;;;;;;34.10;14.05;;;;;;;2.79;75.33;99937.09;5011909;28;20033;-85
2021/11/29 03:43:05;;;;;;;31.73;13.63;;;;;;;2.80;75.06;99929.97;5014218;28;20046;-85
2021/11/29 03:45:31;;;;;;;34.03;14.77;;;;;;;2.79;75.06;99929.16;5014565;28;21487;-85
2021/11/29 03:47:57;;;;;;;38.63;15.30;;;;;;;2.80;75.39;99932.59;5014225;28;20033;-85
2021/11/29 03:50:23;;;;;;;35.10;14.27;;;;;;;2.79;75.23;99931.78;5012743;28;20056;-86
2021/11/29 03:52:48;;;;;;;34.17;14.68;;;;;;;2.81;75.55;99934.22;5012538;28;20114;-86
2021/11/29 03:55:22;;;;;;;42.30;16.23;;;;;;;2.80;75.13;99928.13;5015077;28;20129;-85
2021/11/29 03:57:47;;;;;;;42.33;16.50;;;;;;;2.77;75.16;99940.97;5015214;28;20026;-86
2021/11/29 04:00:13;;;;;;;38.00;15.63;;;;;;;2.77;75.51;99933.03;5032447;28;20483;-84
2021/11/29 04:02:39;;;;;;;40.58;15.63;;;;;;;2.75;75.36;99932.44;5012815;28;20022;-85
2021/11/29 04:05:05;;;;;;;42.15;16.27;;;;;;;2.72;75.44;99931.84;5017459;28;20564;-85
2021/11/29 04:07:30;;;;;;;44.78;17.33;;;;;;;2.70;75.42;99931.28;5013446;28;20022;-85
2021/11/29 04:09:56;;;;;;;47.85;16.05;;;;;;;2.67;75.33;99933.50;5011938;28;20040;-85
2021/11/29 04:12:23;;;;;;;44.38;17.50;;;;;;;2.65;75.54;99932.91;5013325;28;20032;-85
2021/11/29 04:14:49;;;;;;;44.90;16.85;;;;;;;2.63;75.92;99932.31;5016763;28;20033;-86
2021/11/29 04:17:15;;;;;;;45.95;16.45;;;;;;;2.60;75.86;99923.00;5014589;28;20071;-85
2021/11/29 04:19:43;;;;;;;38.92;14.75;;;;;;;2.60;75.69;99930.13;5008883;28;20029;-85
2021/11/29 04:22:09;;;;;;;44.75;17.77;;;;;;;2.60;75.80;99936.22;5009092;28;20025;-88
2021/11/29 04:24:36;;;;;;;40.80;15.88;;;;;;;2.59;75.93;99934.59;5011466;28;20084;-85
2021/11/29 04:27:03;;;;;;;44.63;15.35;;;;;;;2.59;76.02;99931.16;5010880;28;20090;-86
2021/11/29 04:29:33;;;;;;;44.03;15.55;;;;;;;2.60;75.82;99935.41;5012798;28;20047;-86
2021/11/29 04:31:59;;;;;;;48.10;16.48;;;;;;;2.63;76.15;99940.25;5009026;28;20030;-84
2021/11/29 04:34:24;;;;;;;39.72;16.67;;;;;;;2.64;76.22;99940.03;5013415;28;20035;-84
2021/11/29 04:36:50;;;;;;;46.88;17.35;;;;;;;2.65;76.26;99931.09;5013636;28;20095;-84
2021/11/29 04:39:16;;;;;;;43.00;17.45;;;;;;;2.68;76.41;99933.28;5013165;28;20023;-84
2021/11/29 04:41:44;;;;;;;39.95;17.45;;;;;;;2.70;76.14;99936.56;5013963;28;20037;-84
2021/11/29 04:44:10;;;;;;;45.70;17.42;;;;;;;2.70;76.01;99933.91;5013985;28;20029;-87
2021/11/29 04:46:35;;;;;;;42.95;16.67;;;;;;;2.72;75.93;99936.34;5013582;28;20039;-84
2021/11/29 04:49:02;;;;;;;47.53;18.08;;;;;;;2.72;75.86;99939.78;5014374;28;20051;-84
2021/11/29 04:51:27;;;;;;;47.20;17.70;;;;;;;2.73;76.20;99932.66;5005481;28;20472;-84
2021/11/29 04:53:53;;;;;;;43.63;18.15;;;;;;;2.74;76.06;99934.28;5012865;28;20036;-85
2021/11/29 04:56:18;;;;;;;46.08;16.65;;;;;;;2.74;75.97;99934.28;5011714;28;20088;-85
2021/11/29 04:58:44;;;;;;;45.75;17.05;;;;;;;2.76;76.06;99936.72;5014435;28;20042;-84
2021/11/29 05:01:11;;;;;;;46.13;19.17;;;;;;;2.77;76.17;99938.31;5012513;28;20880;-85
2021/11/29 05:03:36;;;;;;;42.05;16.02;;;;;;;2.77;76.12;99936.50;5013267;28;20033;-85
2021/11/29 05:06:02;;;;;;;44.83;17.25;;;;;;;2.79;76.07;99939.72;5010116;28;22011;-86
2021/11/29 05:08:28;;;;;;;42.97;16.40;;;;;;;2.80;76.14;99937.88;5016426;28;20111;-85
2021/11/29 05:10:53;;;;;;;42.30;16.63;;;;;;;2.81;76.28;99928.94;5012422;28;20025;-85
2021/11/29 05:13:20;;;;;;;47.40;17.75;;;;;;;2.81;76.06;99931.56;5009674;28;20038;-84
2021/11/29 05:15:46;;;;;;;48.92;16.73;;;;;;;2.81;76.31;99928.94;5007770;28;20403;-84
2021/11/29 05:18:12;;;;;;;50.33;18.15;;;;;;;2.80;76.63;99935.25;5014037;28;20021;-85
2021/11/29 05:20:37;;;;;;;47.33;17.23;;;;;;;2.80;76.66;99937.88;5012202;28;20025;-84
2021/11/29 05:23:03;;;;;;;46.20;17.65;;;;;;;2.81;76.46;99934.22;5028294;28;20037;-85
2021/11/29 05:25:28;;;;;;;47.03;16.65;;;;;;;2.82;76.30;99943.78;5011488;28;20611;-86
2021/11/29 05:27:54;;;;;;;45.28;17.95;;;;;;;2.82;76.46;99939.28;5016165;28;20025;-85
2021/11/29 05:30:20;;;;;;;51.20;18.48;;;;;;;2.80;76.53;99948.47;5014185;28;21753;-85
2021/11/29 05:32:46;;;;;;;40.00;16.52;;;;;;;2.79;76.69;99952.16;5012247;28;20120;-86
2021/11/29 05:35:12;;;;;;;51.40;17.02;;;;;;;2.80;76.41;99956.41;5013620;28;20120;-86
2021/11/29 05:37:37;;;;;;;38.53;15.68;;;;;;;2.80;76.43;99959.88;5014642;28;20871;-86
2021/11/29 05:40:04;;;;;;;41.58;17.25;;;;;;;2.81;76.88;99966.78;5012797;28;20155;-86
2021/11/29 05:42:30;;;;;;;41.17;15.80;;;;;;;2.81;76.44;99974.72;5011851;28;20498;-84
2021/11/29 05:44:56;;;;;;;37.75;15.93;;;;;;;2.81;76.80;99977.34;5013811;28;20037;-84
2021/11/29 05:47:25;;;;;;;43.08;16.17;;;;;;;2.82;76.97;99978.16;5009756;28;20062;-84
2021/11/29 05:49:50;;;;;;;36.38;15.73;;;;;;;2.81;76.80;99992.41;5014189;28;20045;-84
2021/11/29 05:52:16;;;;;;;38.67;15.82;;;;;;;2.80;76.86;99990.81;5011742;28;20025;-83
2021/11/29 05:54:41;;;;;;;35.47;15.95;;;;;;;2.79;77.26;99990.00;5011777;28;20021;-84
2021/11/29 05:57:07;;;;;;;39.67;15.48;;;;;;;2.75;77.16;99990.63;5010492;28;20040;-84
2021/11/29 05:59:33;;;;;;;35.03;14.88;;;;;;;2.72;77.37;99995.34;5029796;28;20036;-84
2021/11/29 06:02:05;;;;;;;37.20;15.23;;;;;;;2.72;77.48;99995.34;5013865;28;20055;-82
2021/11/29 06:04:31;;;;;;;36.60;15.77;;;;;;;2.75;77.15;99994.09;5014279;28;20033;-83
2021/11/29 06:06:57;;;;;;;39.28;14.70;;;;;;;2.77;77.45;100005.28;5031237;28;20410;-83
2021/11/29 06:09:22;;;;;;;37.80;16.17;;;;;;;2.79;77.23;100005.88;5014488;28;20048;-82
2021/11/29 06:11:48;;;;;;;37.50;16.33;;;;;;;2.80;77.17;100006.66;5013374;28;20029;-82
2021/11/29 06:14:14;;;;;;;37.90;15.75;;;;;;;2.82;77.18;100015.19;5012782;28;20030;-82
2021/11/29 06:16:39;;;;;;;38.92;14.23;;;;;;;2.84;77.31;100019.25;5008578;28;20113;-83
2021/11/29 06:19:05;;;;;;;35.70;13.98;;;;;;;2.84;77.44;100023.72;5010213;28;20045;-83
2021/11/29 06:21:31;;;;;;;39.08;16.63;;;;;;;2.86;77.50;100017.19;5011808;28;20064;-83
2021/11/29 06:23:56;;;;;;;33.47;14.48;;;;;;;2.86;77.31;100021.69;5014231;28;20029;-83
2021/11/29 06:26:22;;;;;;;36.30;15.20;;;;;;;2.86;77.31;100021.69;5011626;28;20994;-82
2021/11/29 06:28:48;;;;;;;44.95;15.68;;;;;;;2.89;77.19;100031.84;5023189;28;20038;-82
2021/11/29 06:31:14;;;;;;;38.00;14.30;;;;;;;2.89;77.37;100037.16;5012891;28;20044;-83
2021/11/29 06:33:40;;;;;;;39.20;15.52;;;;;;;2.91;77.33;100038.56;5011816;28;20025;-83
2021/11/29 06:36:07;;;;;;;41.90;15.63;;;;;;;2.92;77.30;100044.66;5007543;28;20033;-83
2021/11/29 06:38:33;;;;;;;46.83;15.93;;;;;;;2.94;77.14;100037.31;5010740;28;20025;-82
2021/11/29 06:40:59;;;;;;;44.67;15.75;;;;;;;2.96;77.28;100043.19;5007379;28;20033;-82
2021/11/29 06:43:26;;;;;;;37.83;16.02;;;;;;;2.98;77.17;100046.44;5012683;28;20033;-82
2021/11/29 06:45:53;;;;;;;41.85;17.15;;;;;;;2.98;76.99;100054.38;5009458;28;20028;-83
2021/11/29 06:48:19;;;;;;;45.22;16.17;;;;;;;2.98;76.92;100051.72;5010736;28;20915;-83
2021/11/29 06:50:46;;;;;;;36.03;14.43;;;;;;;2.97;77.34;100056.19;5005317;28;20029;-82
2021/11/29 06:53:12;;;;;;;38.45;15.38;;;;;;;2.97;77.41;100056.19;5011270;28;20029;-83
2021/11/29 06:55:38;;;;;;;39.60;15.57;;;;;;;2.99;77.18;100058.63;5021503;28;20032;-83
2021/11/29 06:58:04;;;;;;;43.38;15.65;;;;;;;3.00;77.33;100066.34;5012762;28;20034;-82
2021/11/29 07:00:31;;;;;;;39.65;15.07;;;;;;;3.00;77.23;100053.13;5013051;28;20036;-83
2021/11/29 07:02:57;;;;;;;40.28;15.18;;;;;;;3.01;77.41;100067.16;5013958;28;20033;-82
2021/11/29 07:05:26;;;;;;;43.03;16.50;;;;;;;3.03;77.23;100071.22;5009521;28;20448;-82
2021/11/29 07:07:53;;;;;;;48.15;17.33;;;;;;;3.04;77.58;100072.81;5013176;28;20052;-83
2021/11/29 07:10:20;;;;;;;33.67;14.85;;;;;;;3.04;77.16;100072.03;5010567;28;20036;-82
2021/11/29 07:12:45;;;;;;;39.80;14.88;;;;;;;3.05;77.51;100073.63;5008617;28;20045;-83
2021/11/29 07:15:12;;;;;;;35.88;14.05;;;;;;;3.06;77.28;100085.88;5012505;28;20021;-83
2021/11/29 07:17:37;;;;;;;38.70;15.82;;;;;;;3.08;77.18;100089.13;5012205;28;20090;-83
2021/11/29 07:20:05;;;;;;;39.45;14.65;;;;;;;3.09;77.13;100085.44;4974005;28;1194227;-83
2021/11/29 07:22:30;;;;;;;44.20;16.67;;;;;;;3.11;77.15;100093.16;5011387;28;20033;-82
2021/11/29 07:24:56;;;;;;;39.28;15.50;;;;;;;3.11;77.38;100093.16;5013368;28;20096;-82
2021/11/29 07:27:25;;;;;;;38.55;16.25;;;;;;;3.10;77.43;100087.06;5010125;28;20423;-82
2021/11/29 07:29:52;;;;;;;37.20;15.27;;;;;;;3.10;77.36;100092.34;5009368;28;20048;-83
2021/11/29 07:32:20;;;;;;;42.08;15.43;;;;;;;3.10;77.33;100092.34;5012172;28;20048;-83
2021/11/29 07:34:45;;;;;;;40.75;17.38;;;;;;;3.10;77.31;100086.25;5009900;28;20041;-82
2021/11/29 07:37:15;;;;;;;42.50;16.40;;;;;;;3.11;77.40;100088.69;5011537;28;20061;-83
2021/11/29 07:39:40;;;;;;;39.80;15.90;;;;;;;3.12;77.24;100082.34;5010548;28;20033;-83
2021/11/29 07:42:07;;;;;;;41.05;14.38;;;;;;;3.11;77.61;100088.69;5010968;28;20029;-82
2021/11/29 07:44:32;;;;;;;40.42;14.95;;;;;;;3.12;77.27;100078.91;5009844;28;21872;-82
2021/11/29 07:46:58;;;;;;;39.25;15.07;;;;;;;3.12;77.49;100087.66;5005470;28;20128;-82
2021/11/29 07:49:23;;;;;;;46.25;16.20;;;;;;;3.12;77.45;100100.06;5009287;28;20064;-83
2021/11/29 07:51:49;;;;;;;39.53;14.32;;;;;;;3.13;77.55;100094.56;5012077;28;20910;-83
2021/11/29 07:54:14;;;;;;;38.88;15.25;;;;;;;3.15;77.64;100103.09;5008192;28;20029;-83
2021/11/29 07:56:40;;;;;;;41.13;15.10;;;;;;;3.16;77.36;100104.72;5008371;28;20519;-83
2021/11/29 07:59:05;;;;;;;43.33;14.45;;;;;;;3.17;77.33;100105.53;5012219;28;20028;-83
2021/11/29 08:01:31;;;;;;;45.15;16.50;;;;;;;3.17;77.47;100102.88;5013017;28;20036;-83
2021/11/29 08:03:56;;;;;;;45.70;16.73;;;;;;;3.17;77.73;100110.81;5007760;28;20029;-82
2021/11/29 08:06:22;;;;;;;45.00;16.98;;;;;;;3.13;77.86;100102.50;5008823;28;20025;-83
2021/11/29 08:08:47;;;;;;;42.60;17.00;;;;;;;3.12;77.98;100098.25;5013433;28;20021;-83
2021/11/29 08:11:13;;;;;;;40.72;16.65;;;;;;;3.12;77.90;100103.53;5009166;28;20044;-83
2021/11/29 08:13:38;;;;;;;46.10;16.58;;;;;;;3.12;78.08;100100.88;5010104;28;20033;-83
2021/11/29 08:16:04;;;;;;;46.67;16.63;;;;;;;3.10;78.17;100102.13;5009478;28;20044;-83
2021/11/29 08:18:30;;;;;;;45.65;15.15;;;;;;;3.11;78.52;100104.56;5011579;28;21579;-82
2021/11/29 08:20:55;;;;;;;47.55;16.15;;;;;;;3.12;78.27;100108.00;5007997;28;20033;-82
2021/11/29 08:23:21;;;;;;;44.55;15.80;;;;;;;3.14;78.22;100112.06;5009788;28;20030;-83
2021/11/29 08:25:46;;;;;;;39.97;14.40;;;;;;;3.14;78.21;100109.41;5010990;28;20021;-82
2021/11/29 08:28:12;;;;;;;42.65;14.50;;;;;;;3.17;78.19;100108.97;5013143;28;20032;-83
2021/11/29 08:30:39;;;;;;;34.88;14.05;;;;;;;3.20;78.18;100111.19;5007194;28;20041;-82
2021/11/29 08:33:06;;;;;;;31.58;13.00;;;;;;;3.21;77.97;100104.06;5008784;28;21328;-83
2021/11/29 08:35:31;;;;;;;36.75;12.52;;;;;;;3.23;78.27;100107.31;5014058;28;20040;-83
2021/11/29 08:37:58;;;;;;;34.50;12.60;;;;;;;3.25;78.35;100111.38;5025150;28;20619;-82
2021/11/29 08:40:29;;;;;;;32.00;12.70;;;;;;;3.27;78.06;100111.16;5010376;28;20033;-82
2021/11/29 08:43:00;;;;;;;32.45;12.23;;;;;;;3.30;78.20;100114.19;5023707;28;20144;-83
2021/11/29 08:45:26;;;;;;;32.55;11.50;;;;;;;3.31;78.18;100110.50;5006922;28;20415;-83
2021/11/29 08:47:52;;;;;;;34.03;12.40;;;;;;;3.31;77.96;100110.50;5008458;28;20032;-83
2021/11/29 08:50:18;;;;;;;30.08;12.35;;;;;;;3.30;78.06;100108.88;5009839;28;20040;-83
2021/11/29 08:52:44;;;;;;;30.48;12.98;;;;;;;3.34;78.13;100122.50;5012650;28;20037;-82
2021/11/29 08:55:11;;;;;;;26.85;10.35;;;;;;;3.42;78.14;100124.09;5005515;28;20040;-83
2021/11/29 08:57:38;;;;;;;29.38;11.38;;;;;;;3.48;78.12;100129.31;5009246;28;20048;-83
2021/11/29 09:00:07;;;;;;;27.48;10.90;;;;;;;3.56;78.09;100126.38;5010368;28;20059;-82
2021/11/29 09:02:33;;;;;;;27.98;10.70;;;;;;;3.66;78.26;100125.91;5008391;28;21286;-82
2021/11/29 09:04:58;;;;;;;25.92;11.07;;;;;;;3.77;77.80;100127.84;5011671;28;20550;-82
2021/11/29 09:07:24;;;;;;;21.13;9.27;;;;;;;3.83;77.67;100128.81;5009231;28;21858;-82
2021/11/29 09:09:49;;;;;;;21.42;10.32;;;;;;;3.82;77.81;100133.28;5010532;28;20029;-83
2021/11/29 09:12:15;;;;;;;20.25;8.93;;;;;;;3.82;77.35;100130.66;5008895;28;20031;-83
2021/11/29 09:14:42;;;;;;;19.25;9.20;;;;;;;3.84;77.34;100133.06;5012502;28;20029;-83
2021/11/29 09:17:08;;;;;;;20.80;9.63;;;;;;;3.82;77.26;100135.94;5007880;28;20537;-82
2021/11/29 09:19:33;;;;;;;21.05;9.48;;;;;;;3.83;77.42;100139.41;5012295;28;20041;-83
2021/11/29 09:21:59;;;;;;;22.45;9.07;;;;;;;3.82;77.51;100141.25;5005716;28;20119;-83
2021/11/29 09:24:25;;;;;;;21.35;8.88;;;;;;;3.82;77.13;100132.50;5007791;28;20041;-83
2021/11/29 09:26:50;;;;;;;16.60;8.05;;;;;;;3.81;77.19;100139.63;5008420;28;20026;-82
2021/11/29 09:29:16;;;;;;;18.63;8.43;;;;;;;3.81;77.41;100136.97;5009725;28;20122;-83
2021/11/29 09:31:42;;;;;;;19.05;8.23;;;;;;;3.83;77.34;100145.53;5010360;28;20029;-82
2021/11/29 09:34:07;;;;;;;19.92;8.93;;;;;;;3.85;77.68;100154.06;5009884;28;20033;-83
2021/11/29 09:36:33;;;;;;;21.85;11.43;;;;;;;3.84;77.42;100149.78;5014586;28;20037;-83
2021/11/29 09:38:58;;;;;;;20.83;12.00;;;;;;;3.83;77.34;100156.13;5011228;28;20028;-83
2021/11/29 09:41:26;;;;;;;16.08;9.10;;;;;;;3.83;76.97;100150.81;5013518;28;20029;-83
2021/11/29 09:43:53;;;;;;;16.20;9.95;;;;;;;3.84;77.03;100149.78;5023531;28;21840;-83
2021/11/29 09:46:19;;;;;;;14.68;8.50;;;;;;;3.85;76.91;100153.25;5014739;28;20908;-83
2021/11/29 09:48:45;;;;;;;13.05;7.75;;;;;;;3.86;76.99;100155.69;5008576;28;20136;-82
2021/11/29 09:51:11;;;;;;;12.98;7.55;;;;;;;3.85;76.95;100159.34;5011900;28;20034;-82
2021/11/29 09:53:37;;;;;;;11.25;7.15;;;;;;;3.84;77.46;100157.75;5013740;28;20142;-82
2021/11/29 09:56:04;;;;;;;12.40;6.85;;;;;;;3.85;76.97;100154.06;5028500;28;20033;-82
2021/11/29 09:58:30;;;;;;;13.45;6.25;;;;;;;3.84;77.07;100149.78;5010080;28;20110;-83
2021/11/29 10:00:59;;;;;;;13.18;6.57;;;;;;;3.84;77.16;100151.63;5012614;28;20034;-83
2021/11/29 10:03:27;;;;;;;12.25;6.82;;;;;;;3.82;77.11;100153.69;5015297;28;20377;-83
2021/11/29 10:05:53;;;;;;;14.65;7.40;;;;;;;3.81;77.40;100144.94;5016242;28;20061;-83
2021/11/29 10:08:38;;;;;;;12.65;6.90;;;;;;;3.77;77.02;100151.69;5014101;28;20035;-83
2021/11/29 10:11:09;;;;;;;13.02;6.72;;;;;;;3.81;77.43;100146.78;5031102;28;20032;-83
2021/11/29 10:14:09;;;;;;;11.55;6.88;;;;;;;3.76;76.87;100147.41;5010651;28;20049;-83
2021/11/29 10:16:43;;;;;;;14.55;6.95;;;;;;;3.82;77.24;100149.19;5013457;28;20091;-83
2021/11/29 10:19:21;;;;;;;14.35;7.63;;;;;;;3.84;76.99;100147.13;5011950;28;20759;-83
2021/11/29 10:21:47;;;;;;;13.98;7.63;;;;;;;3.85;76.99;100146.09;5012950;28;20068;-83
2021/11/29 10:24:16;;;;;;;16.30;8.38;;;;;;;3.86;77.01;100136.31;5009997;28;20038;-83
2021/11/29 10:26:48;;;;;;;14.95;7.78;;;;;;;3.86;76.72;100144.25;5009271;28;20553;-83
2021/11/29 10:29:14;;;;;;;14.60;7.10;;;;;;;3.87;76.95;100151.19;5011881;28;20025;-83
2021/11/29 10:31:55;;;;;;;15.05;6.72;;;;;;;3.83;76.65;100144.72;5007620;28;20037;-83
2021/11/29 10:34:29;;;;;;;13.63;6.72;;;;;;;3.84;76.89;100148.97;5011837;28;20021;-83
2021/11/29 10:37:03;;;;;;;;;;;;;;;3.67;76.62;100146.06;5011437;28;20044;-83
2021/11/29 10:39:41;;;;;;;11.95;6.45;;;;;;;3.75;76.74;100148.44;5004637;28;19917;-82
2021/11/29 10:42:09;;;;;;;14.18;7.05;;;;;;;3.82;76.56;100149.19;5013659;28;20029;-83
2021/11/29 10:44:41;;;;;;;13.20;7.05;;;;;;;3.82;76.20;100153.69;5009008;28;20153;-83
2021/11/29 10:47:14;;;;;;;12.77;7.03;;;;;;;3.84;76.41;100151.63;5008658;28;20484;-82
2021/11/29 10:49:44;;;;;;;13.10;7.10;;;;;;;3.84;76.11;100154.28;5011195;28;20052;-83
2021/11/29 10:52:11;;;;;;;13.27;6.95;;;;;;;3.84;76.25;100148.97;5010048;28;20033;-82
2021/11/29 10:54:39;;;;;;;12.32;6.63;;;;;;;3.82;75.85;100151.84;5009548;28;20775;-82
2021/11/29 10:57:10;;;;;;;12.77;6.72;;;;;;;3.84;75.81;100157.75;5011359;28;20040;-83
2021/11/29 10:59:37;;;;;;;11.32;6.13;;;;;;;3.87;75.99;100151.19;5010426;28;20280;-83
2021/11/29 11:02:19;;;;;;;11.27;5.93;;;;;;;3.83;75.87;100150.81;5011690;28;20115;-82
2021/11/29 11:04:47;;;;;;;10.68;6.32;;;;;;;3.88;75.62;100150.97;5010335;28;20144;-83
2021/11/29 11:07:24;;;;;;;13.45;6.57;;;;;;;3.85;75.40;100143.47;5010901;28;20449;-83
2021/11/29 11:09:51;;;;;;;12.93;6.97;;;;;;;3.90;75.37;100146.25;5009895;28;20026;-82
2021/11/29 11:12:17;;;;;;;13.30;6.82;;;;;;;3.93;75.54;100143.16;5012227;28;20112;-83
2021/11/29 11:15:00;;;;;;;12.43;5.90;;;;;;;3.95;75.22;100148.28;5010915;28;20387;-82
2021/11/29 11:17:28;;;;;;;13.18;6.97;;;;;;;3.98;75.42;100144.38;5010950;28;20507;-83
2021/11/29 11:19:56;;;;;;;13.52;6.18;;;;;;;3.99;75.21;100138.84;5009598;28;20605;-83
2021/11/29 11:22:28;;;;;;;12.93;6.10;;;;;;;4.02;75.52;100149.00;5008010;28;20036;-83
2021/11/29 11:25:07;;;;;;;11.45;5.85;;;;;;;4.12;75.31;100149.28;5011185;28;20030;-83